Time;durP1;ratioP1;P1;durP2;ratioP2;P2;SDS_P1;SDS_P2;PMS_P1;PMS_P2;Temp;Humidity;BMP_temperature;BMP_pressure;BME280_temperature;BME280_humidity;BME280_pressure;Samples;Min_cycle;Max_cycle;Signal;HPM_P1;HPM_P2
2023/06/28 00:02:10;;;;;;;;;5.00;3.00;;;;;23.75;41.65;101582.06;5036144;28;45430;-66
2023/06/28 00:04:36;;;;;;;;;3.67;3.67;;;;;23.74;41.35;101559.81;5036678;28;45221;-65
2023/06/28 00:07:01;;;;;;;;;3.67;3.33;;;;;23.78;41.69;101566.78;5034753;28;45422;-66
2023/06/28 00:09:28;;;;;;;;;3.33;3.33;;;;;23.83;41.39;101572.81;5035005;28;45324;-64
2023/06/28 00:11:53;;;;;;;;;4.00;4.00;;;;;23.69;41.71;101576.00;5034101;28;45465;-64
2023/06/28 00:14:19;;;;;;;;;4.67;3.33;;;;;23.65;41.86;101577.06;5034708;28;45512;-64
2023/06/28 00:16:44;;;;;;;;;3.67;3.67;;;;;23.43;42.12;101544.09;5034171;28;45811;-67
2023/06/28 00:19:10;;;;;;;;;6.33;3.67;;;;;23.59;41.66;101563.09;5034195;28;45471;-67
2023/06/28 00:21:35;;;;;;;;;3.33;3.33;;;;;23.62;42.11;101558.47;5037303;28;45400;-68
2023/06/28 00:24:01;;;;;;;;;3.00;3.00;;;;;23.67;41.55;101552.94;5040064;28;45332;-65
2023/06/28 00:26:27;;;;;;;;;3.67;3.67;;;;;23.76;41.11;101568.66;5040767;28;46595;-68
2023/06/28 00:28:52;;;;;;;;;9.00;9.00;;;;;23.75;41.16;101560.69;5041133;28;45430;-69
2023/06/28 00:31:18;;;;;;;;;10.33;9.00;;;;;23.89;41.26;101571.69;5041570;28;45508;-69
2023/06/28 00:33:43;;;;;;;;;13.00;8.33;;;;;23.83;41.06;101554.09;5041104;28;45216;-71
2023/06/28 00:36:09;;;;;;;;;4.67;4.67;;;;;23.74;40.97;101533.06;5039787;28;46083;-69
2023/06/28 00:38:35;;;;;;;;;6.00;4.67;;;;;23.91;40.70;101564.47;5039801;28;45605;-68
2023/06/28 00:41:00;;;;;;;;;4.67;4.67;;;;;23.87;40.82;101549.47;5039733;28;45373;-65
2023/06/28 00:43:26;;;;;;;;;4.00;2.33;;;;;23.88;41.10;101565.47;5041631;28;45336;-65
2023/06/28 00:45:51;;;;;;;;;1.00;1.00;;;;;23.85;40.98;101552.25;5041279;28;46399;-69
2023/06/28 00:48:17;;;;;;;;;7.33;3.00;;;;;23.87;41.24;101558.41;5041308;28;45517;-70
2023/06/28 00:50:43;;;;;;;;;4.67;4.67;;;;;23.77;41.64;101564.16;5039926;28;45351;-65
2023/06/28 00:53:09;;;;;;;;;4.67;3.33;;;;;23.74;41.68;101564.31;5021981;28;45547;-64
2023/06/28 00:55:35;;;;;;;;;11.33;4.67;;;;;23.70;41.26;101547.47;5039243;28;45422;-67
2023/06/28 00:58:01;;;;;;;;;4.00;4.00;;;;;23.73;41.58;101557.16;5039383;28;45528;-66
2023/06/28 01:00:27;;;;;;;;;6.33;5.33;;;;;23.75;40.94;101550.84;5039814;28;45478;-67
2023/06/28 01:02:52;;;;;;;;;5.67;4.00;;;;;23.78;40.82;101549.88;5039632;28;45449;-70
2023/06/28 01:05:20;;;;;;;;;3.67;3.33;;;;;23.71;41.13;101538.53;5038927;28;45948;-67
2023/06/28 01:07:47;;;;;;;;;2.33;2.33;;;;;23.73;40.92;101542.00;5039007;28;45364;-67
2023/06/28 01:10:17;;;;;;;;;5.00;3.67;;;;;23.76;41.14;101552.59;5039129;28;45698;-70
2023/06/28 01:12:43;;;;;;;;;5.00;3.00;;;;;23.69;41.00;101543.91;5021919;28;45553;-69
2023/06/28 01:15:10;;;;;;;;;5.67;4.67;;;;;23.67;40.95;101540.44;5039190;28;45523;-70
2023/06/28 01:17:35;;;;;;;;;3.00;3.00;;;;;23.77;41.46;101554.34;5039122;28;45280;-71
2023/06/28 01:20:03;;;;;;;;;4.00;3.33;;;;;23.65;41.15;101554.78;5039361;28;45252;-69
2023/06/28 01:22:31;;;;;;;;;3.00;3.00;;;;;23.59;41.73;101544.38;5039389;28;45448;-69
2023/06/28 01:24:57;;;;;;;;;4.67;4.33;;;;;23.64;41.63;101551.25;5022956;28;46507;-69
2023/06/28 01:27:24;;;;;;;;;5.00;5.00;;;;;23.68;41.46;101549.31;5040180;28;45489;-69
2023/06/28 01:29:56;;;;;;;;;5.33;5.33;;;;;23.71;41.35;101550.09;5039057;28;45342;-70
2023/06/28 01:32:23;;;;;;;;;6.00;4.67;;;;;23.73;41.15;101543.78;5020687;28;45322;-70
2023/06/28 01:34:48;;;;;;;;;8.50;5.50;;;;;23.70;41.21;101536.75;5039485;28;45409;-70
2023/06/28 01:37:14;;;;;;;;;2.67;2.67;;;;;23.71;41.58;101543.88;5039832;28;45506;-69
2023/06/28 01:39:40;;;;;;;;;4.00;3.67;;;;;23.58;41.70;101516.72;5040809;28;45280;-70
2023/06/28 01:42:07;;;;;;;;;5.33;5.33;;;;;23.70;41.28;101539.44;5040241;28;45364;-69
2023/06/28 01:44:33;;;;;;;;;7.67;7.00;;;;;23.74;41.22;101540.22;5039000;28;45657;-69
2023/06/28 01:46:58;;;;;;;;;8.00;6.67;;;;;23.69;41.21;101535.91;5038878;28;45419;-70
2023/06/28 01:49:25;;;;;;;;;7.00;7.00;;;;;23.64;41.57;101545.91;5038826;28;45451;-70
2023/06/28 01:51:53;;;;;;;;;7.67;7.00;;;;;23.62;41.37;101542.41;5039009;28;45363;-71
2023/06/28 01:54:18;;;;;;;;;6.00;6.00;;;;;23.45;41.97;101548.44;5038501;28;46319;-70
2023/06/28 01:56:44;;;;;;;;;6.67;6.67;;;;;23.33;42.33;101535.56;5038533;28;45427;-69
2023/06/28 01:59:16;;;;;;;;;9.33;6.33;;;;;23.18;42.48;101520.09;5039000;28;45454;-70
2023/06/28 02:02:05;;;;;;;;;;;;;;;;;;;;;
2023/06/28 02:05:14;;;;;;;;;4.67;4.67;;;;;23.27;42.41;101538.44;5039988;28;76588;-69
2023/06/28 02:10:53;;;;;;;;;9.33;7.33;;;;;23.01;42.82;101534.97;5031492;28;45450;-69
2023/06/28 02:13:26;;;;;;;;;9.33;9.33;;;;;22.76;42.86;101502.06;5039386;28;45566;-72
2023/06/28 02:16:03;;;;;;;;;16.00;9.00;;;;;22.93;43.00;101531.69;5038767;28;45286;-70
2023/06/28 02:18:37;;;;;;;;;10.00;8.33;;;;;22.94;42.63;101522.72;5020870;28;45450;-70
2023/06/28 02:21:32;;;;;;;;;8.67;6.67;;;;;22.88;42.09;101503.41;5040121;28;45327;-71
2023/06/28 02:24:02;;;;;;;;;5.33;5.33;;;;;22.54;42.35;101449.44;5020080;28;45565;-71
2023/06/28 02:26:47;;;;;;;;;10.00;9.00;;;;;22.99;42.34;101526.16;5006619;28;46306;-71
2023/06/28 02:29:30;;;;;;;;;10.33;7.33;;;;;22.86;42.12;101498.13;5040042;28;45526;-71
2023/06/28 02:32:06;;;;;;;;;11.67;8.00;;;;;22.94;42.49;101517.38;5039314;28;45445;-72
2023/06/28 02:34:45;;;;;;;;;8.33;8.33;;;;;22.59;42.90;101513.31;5040097;28;45335;-71
2023/06/28 02:37:44;;;;;;;;;;;;;;;;;;;;;
2023/06/28 02:40:32;;;;;;;;;8.00;8.00;;;;;22.37;42.79;101483.84;5037796;28;71932;-70
2023/06/28 02:43:21;;;;;;;;;9.67;8.67;;;;;22.68;42.77;101523.69;5039493;28;45422;-71
2023/06/28 02:45:46;;;;;;;;;8.00;7.00;;;;;22.64;42.88;101516.72;5022755;28;45903;-68
2023/06/28 02:48:12;;;;;;;;;11.67;7.00;;;;;22.59;42.52;101516.88;5037778;28;45482;-71
2023/06/28 02:50:37;;;;;;;;;5.67;5.67;;;;;22.58;42.85;101515.13;5037981;28;45488;-69
2023/06/28 02:53:03;;;;;;;;;7.00;7.00;;;;;22.69;42.63;101519.22;5038165;28;45232;-69
2023/06/28 02:55:29;;;;;;;;;6.00;5.67;;;;;22.60;42.41;101501.72;5038681;28;45516;-69
2023/06/28 02:57:54;;;;;;;;;8.00;5.67;;;;;22.57;42.75;101526.75;5037687;28;45235;-69
2023/06/28 03:00:20;;;;;;;;;8.00;7.33;;;;;22.36;42.97;101522.16;5038879;28;45486;-69
2023/06/28 03:02:45;;;;;;;;;7.00;6.00;;;;;22.35;42.84;101520.41;5019644;28;45509;-70
2023/06/28 03:05:14;;;;;;;;;6.33;5.67;;;;;22.36;42.51;101498.16;5037926;28;45366;-68
2023/06/28 03:07:40;;;;;;;;;7.67;5.33;;;;;22.08;42.86;101463.50;5036713;28;46403;-68
2023/06/28 03:10:07;;;;;;;;;6.00;4.67;;;;;22.36;43.16;101507.00;5032870;28;45477;-67
2023/06/28 03:12:33;;;;;;;;;5.33;5.33;;;;;22.37;43.19;101500.75;5005353;28;45601;-67
2023/06/28 03:15:00;;;;;;;;;3.67;3.67;;;;;22.37;42.96;101503.41;5037408;28;45305;-66
2023/06/28 03:17:25;;;;;;;;;4.00;4.00;;;;;22.30;43.48;101495.69;5035466;28;46287;-68
2023/06/28 03:19:51;;;;;;;;;5.67;5.67;;;;;22.38;43.49;101520.31;5034557;28;45394;-67
2023/06/28 03:22:16;;;;;;;;;9.00;4.67;;;;;22.32;43.56;101505.38;5035233;28;45438;-66
2023/06/28 03:24:42;;;;;;;;;8.33;6.00;;;;;22.18;43.50;101507.59;5017625;28;45632;-66
2023/06/28 03:27:08;;;;;;;;;5.00;5.00;;;;;22.21;43.66;101513.75;5034876;28;45950;-66
2023/06/28 03:29:33;;;;;;;;;8.00;6.00;;;;;22.13;43.97;101493.56;5035791;28;45529;-69
2023/06/28 03:31:59;;;;;;;;;6.33;6.33;;;;;22.22;43.80;101519.97;5034962;28;45426;-65
2023/06/28 03:34:24;;;;;;;;;5.00;5.00;;;;;22.20;43.44;101498.66;5035258;28;45465;-69
2023/06/28 03:36:50;;;;;;;;;4.67;4.33;;;;;22.35;42.95;101501.72;5035708;28;46093;-68
2023/06/28 03:39:15;;;;;;;;;4.67;4.67;;;;;22.36;43.26;101517.69;5016772;28;45770;-67
2023/06/28 03:41:41;;;;;;;;;9.00;5.00;;;;;22.40;43.27;101519.34;5016672;28;45467;-68
2023/06/28 03:44:06;;;;;;;;;5.33;4.00;;;;;22.35;43.21;101510.63;5035213;28;45636;-66
2023/06/28 03:46:32;;;;;;;;;6.00;3.33;;;;;22.35;42.93;101520.41;5034881;28;45416;-69
2023/06/28 03:48:57;;;;;;;;;4.67;3.67;;;;;22.36;43.08;101519.50;5016758;28;46010;-67
2023/06/28 03:51:23;;;;;;;;;5.00;5.00;;;;;22.33;43.13;101511.56;5036009;28;45301;-69
2023/06/28 03:53:49;;;;;;;;;4.33;4.33;;;;;22.28;43.24;101514.44;5018479;28;45613;-68
2023/06/28 03:56:14;;;;;;;;;5.00;4.33;;;;;22.26;43.17;101496.69;5034227;28;45733;-68
2023/06/28 03:58:40;;;;;;;;;6.67;4.00;;;;;22.39;42.96;101511.38;5035853;28;45532;-69
2023/06/28 04:01:06;;;;;;;;;7.00;4.33;;;;;22.44;43.25;101512.94;5037150;28;45376;-67
2023/06/28 04:03:33;;;;;;;;;5.00;3.67;;;;;22.51;43.05;101518.94;5036167;28;45418;-68
2023/06/28 04:05:59;;;;;;;;;7.00;7.00;;;;;22.40;43.14;101492.66;5033241;28;46874;-69
2023/06/28 04:08:26;;;;;;;;;7.67;6.33;;;;;22.34;43.40;101510.66;5034958;28;45631;-69
2023/06/28 04:10:53;;;;;;;;;7.67;6.67;;;;;22.23;43.92;101521.69;5034613;28;45810;-68
2023/06/28 04:13:19;;;;;;;;;12.00;7.33;;;;;22.18;43.68;101518.28;5036837;28;45336;-71
2023/06/28 04:15:44;;;;;;;;;9.00;6.67;;;;;22.12;43.73;101507.84;5036451;28;45351;-68
2023/06/28 04:18:10;;;;;;;;;9.00;8.67;;;;;22.15;43.95;101519.25;5019715;28;45468;-68
2023/06/28 04:20:36;;;;;;;;;11.67;7.33;;;;;22.10;43.94;101515.00;5036793;28;45449;-70
2023/06/28 04:23:01;;;;;;;;;7.00;6.00;;;;;22.14;44.30;101522.88;5036853;28;45340;-69
2023/06/28 04:25:27;;;;;;;;;10.67;9.33;;;;;22.07;44.13;101505.31;5036343;28;46295;-67
2023/06/28 04:27:52;;;;;;;;;10.67;8.67;;;;;22.24;43.91;101528.78;5018411;28;45417;-68
2023/06/28 04:30:18;;;;;;;;;9.00;6.33;;;;;22.16;44.12;101517.47;5036131;28;45463;-67
2023/06/28 04:32:45;;;;;;;;;6.33;6.33;;;;;22.06;44.16;101524.03;5036481;28;45363;-69
2023/06/28 04:35:14;;;;;;;;;6.33;6.00;;;;;22.10;43.86;101509.69;5036794;28;46032;-69
2023/06/28 04:37:40;;;;;;;;;7.00;5.00;;;;;21.96;44.03;101495.00;5037798;28;45282;-70
2023/06/28 04:40:09;;;;;;;;;6.33;5.33;;;;;22.05;44.23;101512.50;5038016;28;46238;-68
2023/06/28 04:42:35;;;;;;;;;4.67;4.67;;;;;22.15;43.61;101513.06;5036312;28;45483;-69
2023/06/28 04:45:00;;;;;;;;;5.33;4.00;;;;;22.25;43.32;101510.97;5031313;28;46105;-69
2023/06/28 04:47:27;;;;;;;;;5.00;5.00;;;;;22.23;43.94;101519.94;5027408;28;45178;-70
2023/06/28 04:49:54;;;;;;;;;6.00;6.00;;;;;22.09;43.40;101503.47;5038249;28;45581;-69
2023/06/28 04:52:21;;;;;;;;;5.67;4.00;;;;;22.21;43.85;101512.91;5017515;28;45402;-72
2023/06/28 04:54:48;;;;;;;;;7.33;5.00;;;;;22.37;43.61;101510.56;5016437;28;45340;-72
2023/06/28 04:57:17;;;;;;;;;5.00;4.33;;;;;22.54;42.58;101513.53;5030144;28;45340;-72
2023/06/28 04:59:43;;;;;;;;;5.00;5.00;;;;;22.36;42.57;101482.13;5018640;28;45387;-73
2023/06/28 05:02:09;;;;;;;;;4.33;4.33;;;;;22.32;42.95;101496.50;5036738;28;45449;-73
2023/06/28 05:04:39;;;;;;;;;4.67;4.67;;;;;22.56;42.63;101505.44;5036306;28;46038;-69
2023/06/28 05:07:09;;;;;;;;;4.67;4.33;;;;;22.72;42.85;101511.09;5036407;28;45473;-71
2023/06/28 05:09:35;;;;;;;;;4.33;4.33;;;;;22.77;41.74;101501.13;5038678;28;45510;-67
2023/06/28 05:12:02;;;;;;;;;4.00;4.00;;;;;22.76;42.47;101513.59;5039649;28;45450;-70
2023/06/28 05:14:29;;;;;;;;;3.33;3.33;;;;;22.94;42.32;101511.16;5022536;28;46918;-68
2023/06/28 05:16:57;;;;;;;;;2.67;2.67;;;;;23.09;41.70;101507.97;5040765;28;45491;-68
2023/06/28 05:19:24;;;;;;;;;5.67;3.33;;;;;23.24;41.03;101493.16;5040783;28;45224;-70
2023/06/28 05:21:50;;;;;;;;;9.00;4.00;;;;;23.39;40.51;101499.69;5039578;28;45351;-70
2023/06/28 05:24:16;;;;;;;;;4.67;4.33;;;;;23.50;39.83;101500.13;5038943;28;45763;-67
2023/06/28 05:26:42;;;;;;;;;3.67;3.67;;;;;23.57;39.85;101498.97;5022755;28;45438;-66
2023/06/28 05:29:08;;;;;;;;;6.00;4.67;;;;;23.49;39.89;101485.91;5039870;28;45581;-67
2023/06/28 05:31:36;;;;;;;;;6.33;3.67;;;;;23.64;40.11;101489.75;5040418;28;45351;-68
2023/06/28 05:34:02;;;;;;;;;7.00;5.33;;;;;23.73;39.86;101495.66;5040641;28;45548;-66
2023/06/28 05:36:28;;;;;;;;;6.33;6.33;;;;;23.79;39.93;101498.13;5021477;28;45343;-67
2023/06/28 05:38:55;;;;;;;;;6.00;4.33;;;;;23.81;40.08;101498.94;5039107;28;45660;-67
2023/06/28 05:41:22;;;;;;;;;6.33;4.00;;;;;23.85;40.42;101489.84;5039129;28;45273;-67
2023/06/28 05:43:47;;;;;;;;;7.00;4.33;;;;;24.00;40.03;101494.53;5021395;28;47560;-68
2023/06/28 05:46:13;;;;;;;;;5.00;5.00;;;;;24.00;39.99;101481.16;5040094;28;45665;-68
2023/06/28 05:48:38;;;;;;;;;4.00;4.00;;;;;23.95;40.14;101482.31;5040756;28;45390;-68
2023/06/28 05:51:09;;;;;;;;;7.00;4.33;;;;;24.04;42.13;101488.13;5040000;28;45569;-69
2023/06/28 05:53:37;;;;;;;;;4.00;4.00;;;;;24.16;40.15;101493.91;5020579;28;47554;-68
2023/06/28 05:56:03;;;;;;;;;8.00;5.00;;;;;24.12;40.44;101488.66;5018338;28;45372;-69
2023/06/28 05:58:29;;;;;;;;;7.67;5.00;;;;;24.16;40.34;101497.44;5035584;28;45425;-69
2023/06/28 06:00:54;;;;;;;;;5.00;3.67;;;;;24.16;39.81;101480.53;5037834;28;45305;-69
2023/06/28 06:03:20;;;;;;;;;8.00;5.00;;;;;24.16;40.40;101478.72;5039216;28;46093;-67
2023/06/28 06:05:46;;;;;;;;;5.33;3.00;;;;;24.34;40.81;101495.75;5024275;28;45329;-67
2023/06/28 06:08:15;;;;;;;;;7.33;5.33;;;;;24.44;39.57;101493.56;5019798;28;45401;-69
2023/06/28 06:10:41;;;;;;;;;4.00;4.00;;;;;24.42;39.44;101476.72;5019077;28;45487;-71
2023/06/28 06:13:06;;;;;;;;;4.00;3.00;;;;;24.52;39.57;101494.13;5018648;28;45418;-71
2023/06/28 06:15:32;;;;;;;;;10.00;7.00;;;;;24.39;39.99;101488.41;5018420;28;45439;-69
2023/06/28 06:18:01;;;;;;;;;6.00;5.00;;;;;24.39;39.81;101492.88;5019033;28;45465;-70
2023/06/28 06:20:27;;;;;;;;;6.33;5.33;;;;;24.51;39.99;101495.94;5017339;28;45621;-68
2023/06/28 06:22:52;;;;;;;;;6.67;3.67;;;;;24.65;39.67;101489.94;5019191;28;46208;-69
2023/06/28 06:25:18;;;;;;;;;6.50;6.50;;;;;24.63;39.67;101485.59;5019925;28;45288;-69
2023/06/28 06:27:43;;;;;;;;;6.67;4.67;;;;;24.67;39.73;101484.53;5020110;28;45431;-69
2023/06/28 06:30:13;;;;;;;;;5.33;4.67;;;;;24.82;40.04;101496.34;5019958;28;45439;-70
2023/06/28 06:32:39;;;;;;;;;7.00;4.33;;;;;24.92;39.52;101492.34;5018731;28;46057;-67
2023/06/28 06:35:06;;;;;;;;;5.33;4.33;;;;;25.02;39.54;101493.63;5017714;28;45963;-68
2023/06/28 06:37:32;;;;;;;;;5.33;3.00;;;;;25.02;39.35;101487.41;5019018;28;45426;-69
2023/06/28 06:39:57;;;;;;;;;5.00;5.00;;;;;25.06;39.47;101473.81;5018412;28;45263;-69
2023/06/28 06:42:23;;;;;;;;;6.00;4.33;;;;;25.17;39.46;101490.25;5017898;28;45351;-68
2023/06/28 06:44:49;;;;;;;;;6.67;5.00;;;;;25.29;38.95;101496.84;5017947;28;45218;-68
2023/06/28 06:47:14;;;;;;;;;7.00;4.00;;;;;25.28;38.89;101489.75;5017927;28;45277;-69
2023/06/28 06:49:40;;;;;;;;;7.50;6.50;;;;;25.44;38.91;101507.78;5017878;28;45478;-68
2023/06/28 06:52:06;;;;;;;;;4.50;3.75;;;;;25.47;38.93;101494.25;5018479;28;45423;-70
2023/06/28 06:54:31;;;;;;;;;5.00;5.00;;;;;25.55;38.12;101492.06;5017960;28;45450;-70
2023/06/28 06:57:06;;;;;;;;;5.00;3.75;;;;;25.52;38.26;101494.91;5029109;28;45471;-69
2023/06/28 06:59:32;;;;;;;;;3.25;3.25;;;;;25.67;38.13;101507.53;5020733;28;45481;-71
2023/06/28 07:01:57;;;;;;;;;4.50;3.25;;;;;25.71;38.59;101510.97;5038909;28;45487;-69
2023/06/28 07:04:26;;;;;;;;;3.75;3.75;;;;;25.59;38.77;101482.91;5038062;28;45383;-70
2023/06/28 07:06:52;;;;;;;;;7.33;6.00;;;;;25.77;38.65;101511.53;5038804;28;45450;-68
2023/06/28 07:09:18;;;;;;;;;7.75;5.00;;;;;25.72;39.49;101510.00;5021356;28;45618;-68
2023/06/28 07:11:48;;;;;;;;;6.25;5.00;;;;;25.58;39.07;101487.44;5037973;28;45436;-69
2023/06/28 07:14:14;;;;;;;;;8.25;5.00;;;;;25.57;39.66;101509.81;5037902;28;45383;-66
2023/06/28 07:16:44;;;;;;;;;5.00;5.00;;;;;25.57;39.49;101506.25;5037665;28;45499;-70
2023/06/28 07:19:10;;;;;;;;;5.67;4.67;;;;;25.68;39.59;101514.66;5039251;28;45462;-71
2023/06/28 07:21:36;;;;;;;;;6.00;6.00;;;;;25.79;39.28;101506.06;5037550;28;46204;-65
2023/06/28 07:24:02;;;;;;;;;7.00;5.25;;;;;25.81;39.12;101505.03;5019110;28;45458;-64
2023/06/28 07:26:27;;;;;;;;;8.00;5.75;;;;;25.88;38.46;101508.31;5037295;28;45379;-63
2023/06/28 07:28:53;;;;;;;;;7.00;4.00;;;;;25.87;38.82;101511.97;5038536;28;45465;-68
2023/06/28 07:31:18;;;;;;;;;4.75;4.75;;;;;25.83;38.67;101496.06;5037324;28;46516;-66
2023/06/28 07:33:44;;;;;;;;;4.50;4.50;;;;;26.02;38.64;101521.06;5037468;28;45499;-66
2023/06/28 07:36:10;;;;;;;;;4.00;3.50;;;;;26.09;38.68;101510.88;5019116;28;45485;-67
2023/06/28 07:38:35;;;;;;;;;9.00;6.00;;;;;26.17;38.62;101514.94;5037173;28;45434;-68
2023/06/28 07:41:01;;;;;;;;;5.75;5.00;;;;;26.21;39.17;101518.31;5036622;28;45621;-68
2023/06/28 07:43:27;;;;;;;;;5.00;5.00;;;;;26.08;39.16;101490.34;5037034;28;45256;-68
2023/06/28 07:45:52;;;;;;;;;2.50;1.50;;;;;26.29;38.82;101523.28;5036995;28;45216;-70
2023/06/28 07:48:19;;;;;;;;;7.75;5.25;;;;;26.22;39.05;101504.81;5037183;28;45340;-69
2023/06/28 07:50:45;;;;;;;;;7.25;5.50;;;;;26.33;38.46;101504.25;5034865;28;45960;-71
2023/06/28 07:53:11;;;;;;;;;5.50;5.00;;;;;26.29;38.90;101480.31;5018815;28;45450;-72
2023/06/28 07:55:36;;;;;;;;;7.25;3.75;;;;;26.50;38.25;101511.41;5022323;28;45304;-69
2023/06/28 07:58:02;;;;;;;;;6.50;6.00;;;;;26.48;38.02;101501.72;5017976;28;45535;-70
2023/06/28 08:00:28;;;;;;;;;7.00;5.25;;;;;26.44;38.57;101493.81;5017751;28;45516;-69
2023/06/28 08:02:54;;;;;;;;;4.50;4.50;;;;;26.53;38.66;101489.78;5034734;28;45378;-66
2023/06/28 08:05:20;;;;;;;;;4.50;4.50;;;;;26.52;38.54;101477.28;5020069;28;45431;-71
2023/06/28 08:07:47;;;;;;;;;10.00;8.00;;;;;26.64;38.82;101489.22;5031065;28;45506;-71
2023/06/28 08:10:13;;;;;;;;;7.25;6.00;;;;;26.62;37.76;101483.97;5035162;28;45696;-72
2023/06/28 08:12:38;;;;;;;;;10.00;5.00;;;;;26.69;37.72;101492.53;5033785;28;46494;-72
2023/06/28 08:15:05;;;;;;;;;6.50;6.00;;;;;26.56;37.79;101469.97;5034058;28;45459;-69
2023/06/28 08:17:31;;;;;;;;;8.25;7.75;;;;;26.70;37.87;101477.31;5016307;28;46476;-71
2023/06/28 08:19:56;;;;;;;;;6.75;6.25;;;;;26.81;37.86;101485.63;5034762;28;45439;-69
2023/06/28 08:22:22;;;;;;;;;5.75;5.75;;;;;26.86;37.74;101492.50;5035347;28;45746;-70
2023/06/28 08:24:51;;;;;;;;;8.00;6.00;;;;;26.87;37.82;101485.31;5034941;28;46636;-70
2023/06/28 08:27:16;;;;;;;;;9.25;7.75;;;;;26.92;37.67;101491.28;5035747;28;45351;-70
2023/06/28 08:29:42;;;;;;;;;9.00;6.25;;;;;27.01;37.16;101496.19;5034872;28;45451;-70
2023/06/28 08:32:09;;;;;;;;;11.00;8.75;;;;;26.94;37.30;101497.47;5035917;28;45510;-70
2023/06/28 08:34:35;;;;;;;;;10.00;8.25;;;;;26.77;37.27;101489.47;5035131;28;45368;-70
2023/06/28 08:37:00;;;;;;;;;7.25;6.50;;;;;26.65;37.97;101472.19;5034422;28;45276;-70
2023/06/28 08:39:26;;;;;;;;;9.00;6.00;;;;;26.76;37.75;101471.59;5035311;28;45950;-70
2023/06/28 08:41:53;;;;;;;;;13.25;8.75;;;;;26.81;37.53;101461.44;5037154;28;45431;-67
2023/06/28 08:44:20;;;;;;;;;8.25;6.50;;;;;27.00;37.61;101474.75;5041692;28;45512;-71
2023/06/28 08:46:48;;;;;;;;;8.25;7.50;;;;;27.08;37.38;101477.88;5041545;28;45332;-70
2023/06/28 08:49:15;;;;;;;;;8.00;5.25;;;;;27.14;37.15;101474.84;5041297;28;45524;-70
2023/06/28 08:51:41;;;;;;;;;8.50;6.25;;;;;27.09;37.06;101471.53;5041006;28;45349;-71
2023/06/28 08:54:13;;;;;;;;;8.50;7.00;;;;;26.77;38.08;101433.88;5041179;28;45527;-70
2023/06/28 08:56:39;;;;;;;;;9.00;6.25;;;;;27.11;37.36;101475.03;5041117;28;45518;-72
2023/06/28 08:59:05;;;;;;;;;9.50;8.25;;;;;27.16;37.36;101464.88;5021686;28;46988;-71
2023/06/28 09:01:34;;;;;;;;;12.25;7.25;;;;;27.28;37.24;101477.66;5039815;28;45303;-72
2023/06/28 09:03:59;;;;;;;;;6.25;6.25;;;;;27.14;36.82;101453.31;5039738;28;45395;-71
2023/06/28 09:06:28;;;;;;;;;11.00;9.00;;;;;27.21;36.79;101461.97;5040070;28;45356;-71
2023/06/28 09:08:54;;;;;;;;;9.50;8.50;;;;;27.24;37.10;101459.09;5039273;28;45938;-71
2023/06/28 09:11:20;;;;;;;;;5.75;5.50;;;;;27.36;37.01;101462.91;5040755;28;45415;-68
2023/06/28 09:13:46;;;;;;;;;9.50;8.00;;;;;27.43;36.76;101472.34;5039432;28;45538;-70
2023/06/28 09:16:13;;;;;;;;;7.50;7.25;;;;;27.17;36.84;101460.34;5039499;28;45521;-71
2023/06/28 09:18:39;;;;;;;;;13.25;9.50;;;;;26.98;37.33;101469.47;5020856;28;46598;-71
2023/06/28 09:21:05;;;;;;;;;9.00;7.00;;;;;27.05;37.12;101481.63;5040258;28;45418;-67
2023/06/28 09:23:33;;;;;;;;;9.50;6.00;;;;;27.13;38.06;101470.44;5040830;28;45428;-73
2023/06/28 09:25:59;;;;;;;;;7.75;7.75;;;;;27.24;37.44;101473.44;5039237;28;45463;-72
2023/06/28 09:28:33;;;;;;;;;7.75;7.75;;;;;27.27;36.96;101461.63;5039091;28;45944;-72
2023/06/28 09:30:59;;;;;;;;;12.00;10.25;;;;;27.37;37.20;101472.72;5039263;28;45481;-74
2023/06/28 09:33:26;;;;;;;;;9.25;7.75;;;;;27.40;37.03;101464.47;5040815;28;45284;-72
2023/06/28 09:35:56;;;;;;;;;11.50;8.75;;;;;27.42;36.68;101463.44;5041536;28;45532;-70
2023/06/28 09:38:22;;;;;;;;;11.50;9.75;;;;;27.35;36.69;101453.13;5039340;28;46176;-73
2023/06/28 09:40:58;;;;;;;;;13.00;9.25;;;;;27.42;36.72;101463.44;5038796;28;45366;-70
2023/06/28 09:43:29;;;;;;;;;11.25;10.00;;;;;27.41;36.65;101448.25;5037946;28;45430;-73
2023/06/28 09:45:55;;;;;;;;;11.50;11.25;;;;;27.48;36.32;101448.78;5039769;28;45909;-71
2023/06/28 09:48:25;;;;;;;;;9.75;9.75;;;;;27.62;36.65;101458.72;5038881;28;45663;-70
2023/06/28 09:50:50;;;;;;;;;12.25;12.25;;;;;27.64;36.52;101438.81;5038963;28;45496;-69
2023/06/28 09:53:19;;;;;;;;;13.00;11.50;;;;;27.71;36.24;101447.41;5038425;28;45354;-68
2023/06/28 09:55:46;;;;;;;;;12.75;11.25;;;;;27.78;36.86;101446.09;5038739;28;45569;-70
2023/06/28 09:58:13;;;;;;;;;13.00;13.00;;;;;27.80;35.87;101446.00;5039424;28;45453;-69
2023/06/28 10:00:41;;;;;;;;;13.25;10.00;;;;;27.81;36.19;101439.66;5020418;28;45447;-71
2023/06/28 10:03:09;;;;;;;;;14.50;11.50;;;;;27.63;36.34;101404.81;5038263;28;45475;-71
2023/06/28 10:05:37;;;;;;;;;18.75;12.00;;;;;27.86;36.95;101443.84;5038399;28;45413;-69
2023/06/28 10:08:08;;;;;;;;;15.50;11.00;;;;;27.92;36.78;101437.22;5037929;28;45347;-73
2023/06/28 10:10:34;;;;;;;;;14.75;11.50;;;;;27.95;35.83;101428.97;5020500;28;45414;-71
2023/06/28 10:13:02;;;;;;;;;14.25;11.25;;;;;27.78;36.20;101419.19;5020459;28;45412;-72
2023/06/28 10:15:34;;;;;;;;;14.25;12.25;;;;;27.72;36.09;101419.56;5038496;28;45301;-73
2023/06/28 10:18:00;;;;;;;;;18.33;14.67;;;;;27.57;36.77;101421.31;5020357;28;45572;-72
2023/06/28 10:20:26;;;;;;;;;13.25;11.50;;;;;27.61;36.46;101411.25;5039000;28;45494;-71
2023/06/28 10:22:52;;;;;;;;;14.25;11.50;;;;;27.73;36.08;101421.28;5039446;28;45480;-71
2023/06/28 10:25:19;;;;;;;;;14.00;12.25;;;;;27.56;36.30;101379.22;5022464;28;45589;-73
2023/06/28 10:27:46;;;;;;;;;12.75;11.75;;;;;27.84;36.18;101407.22;5039507;28;46188;-72
2023/06/28 10:30:12;;;;;;;;;19.00;16.00;;;;;27.98;36.26;101419.88;5020915;28;45556;-75
2023/06/28 10:32:38;;;;;;;;;17.00;15.50;;;;;27.94;35.90;101403.00;5038070;28;45472;-73
2023/06/28 10:35:06;;;;;;;;;20.33;17.00;;;;;27.98;35.86;101388.41;5038780;28;45444;-71
2023/06/28 10:37:33;;;;;;;;;17.00;15.67;;;;;28.18;35.63;101418.63;5038769;28;45473;-72
2023/06/28 10:39:59;;;;;;;;;18.25;14.75;;;;;28.27;35.33;101420.75;5037665;28;45420;-71
2023/06/28 10:42:24;;;;;;;;;18.33;15.67;;;;;28.22;35.12;101406.72;5020533;28;45459;-72
2023/06/28 10:44:54;;;;;;;;;21.00;16.00;;;;;28.29;35.47;101414.31;5019878;28;45433;-71
2023/06/28 10:47:20;;;;;;;;;18.67;15.67;;;;;28.40;35.45;101413.63;5037298;28;46169;-71
2023/06/28 10:50:24;;;;;;;;;21.50;16.00;;;;;28.41;35.21;101407.31;5037807;28;45405;-74
2023/06/28 10:52:53;;;;;;;;;17.50;15.75;;;;;28.53;34.88;101403.88;4956639;28;45417;-71
2023/06/28 10:55:29;;;;;;;;;20.00;17.33;;;;;28.58;34.76;101417.06;4956531;28;45805;-71
2023/06/28 10:58:26;;;;;;;;;25.00;18.33;;;;;28.51;34.40;101397.72;4991172;28;45493;-74
2023/06/28 11:00:52;;;;;;;;;24.00;18.67;;;;;28.56;34.77;101405.50;5017774;28;45447;-70
2023/06/28 11:03:19;;;;;;;;;25.67;21.00;;;;;28.49;34.68;101414.94;5017893;28;45474;-70
2023/06/28 11:05:44;;;;;;;;;19.33;19.00;;;;;28.41;35.33;101407.31;5018540;28;45543;-74
2023/06/28 11:08:13;;;;;;;;;23.00;19.00;;;;;28.48;35.20;101406.00;5017916;28;46054;-69
2023/06/28 11:10:41;;;;;;;;;22.00;17.67;;;;;28.62;35.03;101402.44;5017771;28;45566;-73
2023/06/28 11:13:15;;;;;;;;;21.00;19.67;;;;;28.63;35.08;101385.28;5019451;28;45526;-72
2023/06/28 11:15:47;;;;;;;;;24.33;21.67;;;;;28.80;34.49;101396.81;5020356;28;45514;-72
2023/06/28 11:18:21;;;;;;;;;23.00;21.00;;;;;28.60;34.88;101393.56;5019219;28;45296;-71
2023/06/28 11:21:07;;;;;;;;;23.33;19.00;;;;;28.67;34.73;101394.06;5017746;28;45509;-71
2023/06/28 11:23:43;;;;;;;;;21.33;18.33;;;;;28.87;34.65;101393.63;5017319;28;45477;-73
2023/06/28 11:26:38;;;;;;;;;19.33;18.00;;;;;28.86;34.59;101372.16;5018901;28;45423;-75
2023/06/28 11:29:18;;;;;;;;;21.33;18.00;;;;;28.95;34.29;101388.63;5018037;28;46329;-74
2023/06/28 11:31:49;;;;;;;;;21.67;17.00;;;;;29.09;34.57;101387.75;5000823;28;45801;-74